Time;durP1;ratioP1;P1;durP2;ratioP2;P2;SDS_P1;SDS_P2;PMS_P1;PMS_P2;Temp;Humidity;BMP_temperature;BMP_pressure;BME280_temperature;BME280_humidity;BME280_pressure;Samples;Min_cycle;Max_cycle;Signal;HPM_P1;HPM_P2
2021/04/30 00:00:50;;;;;;;7.27;6.57;;;15.60;31.70;;;;;;10415665;28;20310;-73
2021/04/30 00:05:53;;;;;;;6.77;6.23;;;15.50;32.00;;;;;;10403429;28;20313;-72
2021/04/30 00:10:55;;;;;;;5.87;5.23;;;15.50;31.40;;;;;;10407935;28;20399;-72
2021/04/30 00:15:58;;;;;;;6.67;6.07;;;15.40;31.50;;;;;;10409210;28;20309;-73
2021/04/30 00:21:01;;;;;;;6.87;6.27;;;15.40;32.50;;;;;;10414627;28;20217;-73
2021/04/30 00:26:07;;;;;;;7.90;7.10;;;15.30;31.50;;;;;;10422295;28;20753;-72
2021/04/30 00:31:10;;;;;;;7.03;6.33;;;15.30;31.80;;;;;;10404310;28;20312;-75
2021/04/30 00:36:12;;;;;;;7.13;6.43;;;15.20;31.50;;;;;;10421904;28;20225;-76
2021/04/30 00:41:14;;;;;;;6.93;6.20;;;15.10;31.20;;;;;;10411534;28;20242;-75
2021/04/30 00:46:31;;;;;;;7.03;6.43;;;15.10;31.10;;;;;;10416578;28;20253;-76
2021/04/30 00:51:34;;;;;;;6.83;6.13;;;15.00;31.40;;;;;;10412652;28;20229;-76
2021/04/30 00:56:37;;;;;;;6.83;6.23;;;14.90;30.90;;;;;;10413637;28;20260;-76
2021/04/30 01:01:40;;;;;;;8.67;7.57;;;14.70;31.00;;;;;;10403135;28;20309;-74
2021/04/30 01:06:42;;;;;;;6.73;6.13;;;14.60;31.40;;;;;;10418028;28;20260;-76
2021/04/30 01:11:45;;;;;;;10.60;8.50;;;14.50;31.00;;;;;;10407334;28;20241;-75
2021/04/30 01:16:48;;;;;;;9.20;8.30;;;14.40;31.30;;;;;;10407900;28;20804;-76
2021/04/30 01:21:53;;;;;;;8.30;7.50;;;14.20;31.40;;;;;;10404978;28;20229;-75
2021/04/30 01:26:56;;;;;;;7.67;7.07;;;14.10;31.30;;;;;;10406089;28;20275;-76
2021/04/30 01:31:58;;;;;;;7.63;6.83;;;14.00;31.20;;;;;;10412072;28;20701;-74
2021/04/30 01:37:01;;;;;;;10.80;9.80;;;13.90;31.10;;;;;;10412220;28;20232;-74
2021/04/30 01:42:05;;;;;;;12.00;10.87;;;13.90;31.80;;;;;;10416913;28;20308;-75
2021/04/30 01:47:08;;;;;;;11.60;10.60;;;13.80;32.10;;;;;;10409577;28;20601;-74
2021/04/30 01:52:12;;;;;;;12.27;11.03;;;13.80;31.90;;;;;;10409607;28;20222;-76
2021/04/30 01:57:14;;;;;;;11.77;10.67;;;13.70;32.20;;;;;;10405670;28;20256;-75
2021/04/30 02:02:16;;;;;;;10.90;9.87;;;13.70;32.10;;;;;;10396724;28;20253;-76
2021/04/30 02:07:19;;;;;;;10.60;9.70;;;13.60;31.80;;;;;;10398297;28;20233;-75
2021/04/30 02:12:24;;;;;;;11.10;9.87;;;13.50;32.00;;;;;;10405950;28;20573;-75
2021/04/30 02:17:30;;;;;;;9.83;9.03;;;13.50;32.40;;;;;;10410353;28;20234;-76
2021/04/30 02:22:33;;;;;;;10.53;9.17;;;13.50;31.80;;;;;;10400567;28;20250;-76
2021/04/30 02:27:36;;;;;;;10.07;9.27;;;13.50;32.00;;;;;;10399698;28;20227;-75
2021/04/30 02:32:38;;;;;;;9.37;8.47;;;13.40;31.80;;;;;;10403265;28;20221;-76
2021/04/30 02:37:42;;;;;;;9.10;8.30;;;13.40;31.70;;;;;;10409166;28;20316;-75
2021/04/30 02:42:45;;;;;;;7.87;7.07;;;13.30;31.80;;;;;;10395551;28;20710;-76
2021/04/30 02:47:48;;;;;;;8.77;7.53;;;13.30;32.30;;;;;;10403701;28;20258;-76
2021/04/30 02:52:53;;;;;;;7.80;7.20;;;13.30;31.50;;;;;;10402137;28;20221;-76
2021/04/30 02:57:57;;;;;;;8.50;7.80;;;13.30;31.60;;;;;;10402211;28;20230;-76
2021/04/30 03:03:00;;;;;;;8.00;7.23;;;13.40;31.60;;;;;;10404114;28;20225;-75
2021/04/30 03:08:04;;;;;;;7.90;7.20;;;13.40;31.60;;;;;;10385361;28;20229;-75
2021/04/30 03:13:06;;;;;;;7.67;7.07;;;13.40;31.60;;;;;;10402855;28;20345;-74
2021/04/30 03:18:09;;;;;;;7.67;7.03;;;13.40;31.20;;;;;;10384915;28;20265;-76
2021/04/30 03:23:12;;;;;;;7.67;6.73;;;13.40;31.20;;;;;;10393554;28;20249;-75
2021/04/30 03:28:14;;;;;;;6.70;6.13;;;13.40;31.30;;;;;;10407867;28;20316;-75
2021/04/30 03:33:16;;;;;;;7.37;6.77;;;13.40;31.40;;;;;;10407483;28;20242;-75
2021/04/30 03:38:19;;;;;;;7.97;7.23;;;13.40;31.30;;;;;;10393693;28;20324;-75
2021/04/30 03:43:21;;;;;;;7.60;6.90;;;13.30;31.30;;;;;;10407703;28;20320;-75
2021/04/30 03:48:24;;;;;;;7.53;6.93;;;13.30;31.20;;;;;;10414083;28;20311;-75
2021/04/30 03:53:29;;;;;;;8.33;7.60;;;13.30;31.50;;;;;;10384624;28;20226;-76
2021/04/30 03:58:31;;;;;;;7.37;6.77;;;13.20;32.10;;;;;;10404863;28;20321;-73
2021/04/30 04:03:34;;;;;;;6.30;5.70;;;13.20;31.10;;;;;;10410441;28;20304;-74
2021/04/30 04:08:37;;;;;;;7.63;6.93;;;13.20;31.20;;;;;;10392200;28;20761;-75
2021/04/30 04:13:39;;;;;;;5.63;5.17;;;13.20;31.30;;;;;;10401388;28;20245;-76
2021/04/30 04:18:41;;;;;;;7.57;6.97;;;13.10;31.20;;;;;;10406896;28;20252;-76
2021/04/30 04:23:45;;;;;;;8.50;7.80;;;13.10;31.40;;;;;;10399688;28;20222;-75
2021/04/30 04:28:47;;;;;;;7.70;7.00;;;13.00;31.50;;;;;;10408032;28;20307;-75
2021/04/30 04:33:49;;;;;;;7.77;7.07;;;13.00;31.30;;;;;;10407060;28;20249;-76
2021/04/30 04:38:52;;;;;;;7.40;6.80;;;13.00;31.50;;;;;;10407256;28;20254;-76
2021/04/30 04:43:54;;;;;;;7.87;7.13;;;13.00;31.70;;;;;;10404533;28;20232;-76
2021/04/30 04:48:56;;;;;;;8.20;7.27;;;13.00;31.70;;;;;;10413105;28;20320;-74
2021/04/30 04:54:00;;;;;;;7.90;7.20;;;13.00;31.70;;;;;;10388955;28;20308;-75
2021/04/30 04:59:02;;;;;;;7.90;7.27;;;13.00;31.70;;;;;;10398639;28;20309;-76
2021/04/30 05:04:05;;;;;;;7.83;7.17;;;13.00;31.70;;;;;;10380842;28;20256;-76
2021/04/30 05:09:08;;;;;;;7.73;7.03;;;13.00;31.70;;;;;;10417120;28;20237;-75
2021/04/30 05:14:11;;;;;;;7.80;7.10;;;13.00;31.70;;;;;;10395014;28;20226;-76
2021/04/30 05:19:13;;;;;;;8.13;7.33;;;13.00;31.60;;;;;;10408862;28;20261;-75
2021/04/30 05:24:16;;;;;;;7.03;6.33;;;13.10;31.80;;;;;;10393464;28;20758;-75
2021/04/30 05:29:19;;;;;;;7.60;6.90;;;13.00;31.90;;;;;;10398252;28;20313;-75
2021/04/30 05:34:21;;;;;;;7.77;7.07;;;13.00;31.80;;;;;;10379553;28;20419;-75
2021/04/30 05:39:24;;;;;;;7.93;7.30;;;13.00;31.70;;;;;;10399610;28;20225;-76
2021/04/30 05:44:26;;;;;;;7.97;7.30;;;13.00;32.00;;;;;;10404724;28;20320;-74
2021/04/30 05:49:28;;;;;;;8.00;7.20;;;13.00;31.80;;;;;;10411590;28;20307;-75
2021/04/30 05:54:31;;;;;;;7.90;7.20;;;13.00;31.50;;;;;;10411124;28;20217;-76
2021/04/30 05:59:34;;;;;;;8.20;7.60;;;13.00;31.30;;;;;;10411695;28;20287;-76
2021/04/30 06:04:36;;;;;;;8.67;7.87;;;13.00;31.80;;;;;;10434549;28;20812;-76
2021/04/30 06:09:39;;;;;;;7.83;7.20;;;12.90;31.00;;;;;;10429022;28;20229;-75
2021/04/30 06:14:42;;;;;;;8.33;7.73;;;12.90;31.00;;;;;;10411396;28;20217;-75
2021/04/30 06:19:44;;;;;;;8.37;7.67;;;12.90;30.80;;;;;;10390576;28;20232;-75
2021/04/30 06:24:47;;;;;;;8.47;7.77;;;13.00;30.40;;;;;;10370366;28;20301;-76
2021/04/30 06:29:49;;;;;;;8.50;7.80;;;12.90;30.30;;;;;;10407783;28;20222;-75
2021/04/30 06:34:51;;;;;;;8.30;7.60;;;12.90;30.30;;;;;;10410191;28;20642;-74
2021/04/30 06:39:56;;;;;;;8.30;7.60;;;13.00;30.50;;;;;;10408946;28;20269;-73
2021/04/30 06:44:58;;;;;;;8.60;7.90;;;13.00;30.90;;;;;;10411948;28;20316;-72
2021/04/30 06:50:00;;;;;;;8.17;7.47;;;13.10;30.90;;;;;;10408792;28;20308;-73
2021/04/30 06:55:04;;;;;;;9.33;8.47;;;13.10;30.60;;;;;;10395198;28;20249;-72
2021/04/30 07:00:16;;;;;;;8.90;8.20;;;13.20;30.50;;;;;;10405289;28;20259;-73
2021/04/30 07:05:18;;;;;;;8.47;7.77;;;13.20;30.50;;;;;;10407403;28;20308;-72
2021/04/30 07:10:23;;;;;;;8.63;7.93;;;13.30;30.60;;;;;;10404927;28;20319;-73
2021/04/30 07:15:26;;;;;;;9.50;8.70;;;13.40;30.70;;;;;;10396138;28;20309;-73
2021/04/30 07:20:30;;;;;;;8.13;7.43;;;13.50;30.80;;;;;;10405336;28;20250;-73
2021/04/30 07:25:34;;;;;;;9.33;8.63;;;13.50;30.80;;;;;;10403232;28;20224;-73
2021/04/30 07:30:36;;;;;;;9.20;8.50;;;13.50;30.80;;;;;;10407278;28;20260;-73
2021/04/30 07:35:40;;;;;;;9.60;8.80;;;13.60;30.90;;;;;;10404313;28;20239;-73
2021/04/30 07:40:44;;;;;;;8.40;7.70;;;13.70;30.50;;;;;;10410487;28;20312;-74
2021/04/30 07:45:46;;;;;;;8.83;8.03;;;13.80;30.30;;;;;;10417478;28;20248;-73
2021/04/30 07:50:48;;;;;;;8.93;8.13;;;13.90;30.30;;;;;;10400530;28;20682;-73
2021/04/30 07:55:51;;;;;;;7.40;6.80;;;14.00;30.20;;;;;;10402209;28;20249;-73
2021/04/30 08:00:55;;;;;;;9.27;8.47;;;14.10;30.20;;;;;;10400850;28;20214;-73
2021/04/30 08:05:57;;;;;;;8.20;7.50;;;14.30;30.40;;;;;;10398688;28;20248;-73
2021/04/30 08:11:01;;;;;;;8.97;8.27;;;14.40;30.40;;;;;;10416352;28;20740;-73
2021/04/30 08:16:08;;;;;;;8.20;7.60;;;14.60;30.40;;;;;;10393473;28;20221;-73
2021/04/30 08:21:10;;;;;;;8.70;8.00;;;14.80;30.50;;;;;;10402605;28;20910;-74
2021/04/30 08:26:13;;;;;;;8.33;7.63;;;15.00;30.40;;;;;;10392768;28;20355;-74
2021/04/30 08:31:17;;;;;;;8.87;8.17;;;15.20;30.40;;;;;;10404302;28;20230;-74
2021/04/30 08:36:21;;;;;;;9.03;8.13;;;15.50;30.00;;;;;;10414277;28;20221;-74
2021/04/30 08:41:25;;;;;;;8.87;8.00;;;15.70;30.00;;;;;;10415902;28;20245;-75
2021/04/30 08:46:27;;;;;;;7.87;7.07;;;15.80;29.80;;;;;;10407512;28;20634;-74
2021/04/30 08:51:30;;;;;;;7.70;7.00;;;16.10;30.50;;;;;;10410797;28;20225;-74
2021/04/30 08:56:33;;;;;;;8.07;7.47;;;16.30;30.40;;;;;;10415677;28;20324;-74
2021/04/30 09:01:35;;;;;;;7.97;7.27;;;16.60;29.70;;;;;;10416287;28;20781;-75
2021/04/30 09:06:39;;;;;;;8.27;7.50;;;16.80;29.90;;;;;;10415702;28;20280;-74
2021/04/30 09:11:45;;;;;;;7.70;7.00;;;17.00;29.60;;;;;;10404293;28;20317;-74
2021/04/30 09:16:58;;;;;;;7.90;7.20;;;17.20;29.70;;;;;;10410091;28;20226;-75
2021/04/30 09:22:13;;;;;;;8.23;7.57;;;17.50;29.00;;;;;;10413049;28;20209;-74
2021/04/30 09:27:32;;;;;;;8.60;7.37;;;17.80;29.70;;;;;;10392649;28;20629;-74
2021/04/30 09:32:34;;;;;;;8.63;7.93;;;18.00;28.30;;;;;;10404639;28;20295;-74
2021/04/30 09:37:42;;;;;;;8.20;7.50;;;18.30;28.90;;;;;;10408371;28;20643;-74
2021/04/30 09:42:45;;;;;;;7.67;7.00;;;18.40;27.90;;;;;;10407334;28;20272;-74
2021/04/30 09:47:49;;;;;;;8.87;8.10;;;18.60;28.60;;;;;;10414034;28;20658;-74
2021/04/30 09:52:56;;;;;;;8.73;7.60;;;18.80;28.20;;;;;;10413275;28;20230;-74
2021/04/30 09:58:14;;;;;;;8.33;7.73;;;19.00;27.90;;;;;;10400484;28;20263;-74
2021/04/30 10:03:19;;;;;;;8.00;7.20;;;19.10;27.30;;;;;;10405335;28;20311;-74
2021/04/30 10:08:21;;;;;;;8.07;7.30;;;19.30;27.90;;;;;;10413093;28;20318;-73
2021/04/30 10:13:24;;;;;;;7.97;7.17;;;19.40;27.90;;;;;;10419489;28;20221;-74
2021/04/30 10:18:26;;;;;;;7.30;6.70;;;19.60;27.60;;;;;;10396981;28;20317;-74
2021/04/30 10:23:30;;;;;;;7.47;6.87;;;19.80;27.70;;;;;;10407177;28;20301;-75
2021/04/30 10:28:35;;;;;;;7.77;7.03;;;19.90;27.20;;;;;;10412457;28;20229;-74
2021/04/30 10:33:42;;;;;;;8.60;7.80;;;19.90;26.80;;;;;;10412490;28;20317;-75
2021/04/30 10:38:49;;;;;;;8.00;7.23;;;20.00;26.40;;;;;;10412168;28;20248;-74
2021/04/30 10:44:11;;;;;;;7.90;7.30;;;20.10;26.50;;;;;;10403944;28;20317;-75
2021/04/30 10:49:27;;;;;;;8.77;7.53;;;20.20;26.70;;;;;;10411556;28;20229;-75
2021/04/30 10:54:30;;;;;;;7.00;6.43;;;20.20;26.10;;;;;;10405795;28;20299;-75
2021/04/30 10:59:44;;;;;;;6.93;6.30;;;20.20;26.70;;;;;;10407871;28;20237;-74
2021/04/30 11:05:11;;;;;;;7.97;7.00;;;20.20;26.30;;;;;;10410470;28;20304;-75
2021/04/30 11:10:39;;;;;;;6.87;6.27;;;20.40;26.50;;;;;;10396673;28;20225;-74
2021/04/30 11:15:54;;;;;;;7.93;7.30;;;20.60;26.50;;;;;;10411222;28;20230;-75
2021/04/30 11:21:06;;;;;;;7.10;6.50;;;20.70;25.20;;;;;;10410818;28;20276;-74
2021/04/30 11:26:18;;;;;;;7.37;6.10;;;20.80;25.90;;;;;;10407888;28;20249;-74
2021/04/30 11:31:28;;;;;;;7.27;6.73;;;20.80;25.90;;;;;;10410935;28;20260;-76
2021/04/30 11:36:31;;;;;;;7.00;6.40;;;20.80;25.30;;;;;;10417872;28;20230;-76
2021/04/30 11:41:34;;;;;;;6.97;6.27;;;20.70;25.80;;;;;;10410674;28;20304;-75
2021/04/30 11:46:38;;;;;;;7.30;6.60;;;20.70;26.40;;;;;;10408194;28;20249;-75
2021/04/30 11:51:46;;;;;;;6.77;6.17;;;20.80;26.10;;;;;;10408858;28;20225;-75
2021/04/30 11:57:08;;;;;;;7.00;6.40;;;20.90;25.90;;;;;;10405358;28;20316;-76
2021/04/30 12:02:13;;;;;;;6.87;6.37;;;21.00;26.00;;;;;;10398096;28;20229;-76
2021/04/30 12:07:16;;;;;;;7.23;6.63;;;20.90;25.90;;;;;;10406982;28;20233;-78
2021/04/30 12:12:24;;;;;;;6.67;6.17;;;21.00;26.00;;;;;;10417561;28;20275;-76
2021/04/30 12:17:38;;;;;;;7.47;6.83;;;21.00;26.00;;;;;;10408120;28;20316;-76
2021/04/30 12:22:53;;;;;;;6.90;6.33;;;21.10;26.10;;;;;;10404398;28;20256;-76
2021/04/30 12:28:16;;;;;;;7.47;6.73;;;21.20;25.50;;;;;;10413631;28;20332;-76
2021/04/30 12:33:32;;;;;;;7.17;6.60;;;21.30;25.50;;;;;;10411866;28;20648;-76
2021/04/30 12:38:35;;;;;;;7.47;6.60;;;21.40;25.70;;;;;;10409055;28;20308;-78
2021/04/30 12:43:39;;;;;;;6.83;6.07;;;21.40;26.30;;;;;;10404029;28;20221;-75
2021/04/30 12:48:44;;;;;;;7.30;6.70;;;21.50;26.30;;;;;;10407543;28;20321;-76
2021/04/30 12:53:47;;;;;;;6.67;6.07;;;21.50;25.70;;;;;;10403765;28;20272;-76
2021/04/30 12:59:07;;;;;;;7.83;7.10;;;21.60;26.10;;;;;;10406801;28;20344;-76
2021/04/30 13:04:15;;;;;;;8.60;7.80;;;21.70;25.30;;;;;;10409666;28;20308;-75
2021/04/30 13:09:18;;;;;;;7.83;7.20;;;21.90;25.60;;;;;;10392075;28;20284;-76
2021/04/30 13:14:20;;;;;;;8.13;7.40;;;22.00;25.80;;;;;;10398078;28;20329;-76
2021/04/30 13:19:25;;;;;;;7.37;6.87;;;22.10;25.70;;;;;;10405619;28;20320;-75
2021/04/30 13:24:29;;;;;;;7.80;7.10;;;22.10;25.10;;;;;;10403332;28;20275;-76
2021/04/30 13:29:33;;;;;;;7.33;6.73;;;22.20;25.20;;;;;;10415457;28;20774;-76
2021/04/30 13:34:43;;;;;;;7.73;7.13;;;22.20;25.30;;;;;;10407468;28;20222;-75
2021/04/30 13:39:47;;;;;;;8.20;7.40;;;22.20;25.20;;;;;;10402591;28;20312;-76
2021/04/30 13:44:51;;;;;;;6.90;6.30;;;22.30;25.30;;;;;;10408176;28;20313;-76
2021/04/30 13:49:58;;;;;;;7.17;6.57;;;22.30;25.30;;;;;;10413029;28;20232;-76
2021/04/30 13:55:07;;;;;;;7.10;6.53;;;22.30;25.30;;;;;;10401188;28;20222;-76
2021/04/30 14:00:12;;;;;;;7.70;7.10;;;22.30;25.30;;;;;;10407246;28;20313;-76
2021/04/30 14:05:17;;;;;;;7.57;6.30;;;22.40;25.20;;;;;;10401478;28;20221;-73
2021/04/30 14:10:20;;;;;;;8.17;7.37;;;22.40;24.70;;;;;;10403994;28;20316;-73
2021/04/30 14:15:22;;;;;;;9.03;7.87;;;22.50;25.00;;;;;;10410509;28;20833;-74
2021/04/30 14:20:25;;;;;;;8.80;8.00;;;22.50;25.00;;;;;;10412695;28;20257;-73
2021/04/30 14:25:27;;;;;;;8.47;7.77;;;22.50;24.70;;;;;;10407029;28;20234;-73
2021/04/30 14:30:30;;;;;;;7.80;7.00;;;22.50;24.70;;;;;;10414038;28;20239;-73
2021/04/30 14:35:33;;;;;;;8.47;7.87;;;22.50;24.70;;;;;;10397667;28;20293;-73
2021/04/30 14:40:35;;;;;;;7.77;7.10;;;22.50;24.40;;;;;;10410064;28;20316;-73
2021/04/30 14:45:37;;;;;;;7.57;6.80;;;22.40;24.50;;;;;;10411966;28;20303;-74
2021/04/30 14:50:40;;;;;;;6.40;5.80;;;22.40;24.50;;;;;;10402032;28;20292;-72
2021/04/30 14:55:43;;;;;;;7.50;6.43;;;22.40;24.30;;;;;;10404100;28;20248;-73
2021/04/30 15:00:46;;;;;;;7.30;6.70;;;22.30;24.10;;;;;;10405284;28;20221;-73
2021/04/30 15:05:55;;;;;;;7.00;6.40;;;22.10;23.80;;;;;;10395277;28;20295;-73
2021/04/30 15:10:57;;;;;;;6.70;6.10;;;21.90;23.80;;;;;;10392289;28;20253;-74
2021/04/30 15:16:01;;;;;;;6.03;5.43;;;21.80;24.20;;;;;;10399803;28;20225;-73
2021/04/30 15:21:05;;;;;;;5.80;5.30;;;21.70;24.30;;;;;;10401711;28;20299;-75
2021/04/30 15:26:07;;;;;;;5.87;5.37;;;21.70;24.10;;;;;;10397049;28;20264;-74
2021/04/30 15:31:13;;;;;;;6.50;5.90;;;21.70;24.10;;;;;;10405254;28;20654;-74
2021/04/30 15:36:17;;;;;;;7.00;6.40;;;21.60;22.60;;;;;;10400271;28;20766;-75
2021/04/30 15:41:19;;;;;;;7.57;6.53;;;21.30;22.20;;;;;;10403276;28;20328;-75
2021/04/30 15:46:21;;;;;;;8.10;6.20;;;20.90;21.80;;;;;;10411834;28;20234;-74
2021/04/30 15:51:24;;;;;;;7.43;6.57;;;20.40;22.00;;;;;;10411748;28;20553;-74
2021/04/30 15:56:26;;;;;;;7.30;6.53;;;20.10;21.50;;;;;;10395951;28;20225;-74
2021/04/30 16:01:28;;;;;;;6.97;6.23;;;19.70;21.70;;;;;;10398789;28;20225;-74
2021/04/30 16:06:32;;;;;;;7.23;6.53;;;19.20;21.60;;;;;;10406082;28;20321;-74
2021/04/30 16:11:34;;;;;;;6.57;5.97;;;18.80;21.70;;;;;;10405421;28;20252;-74
2021/04/30 16:16:36;;;;;;;6.53;5.80;;;18.60;22.20;;;;;;10398599;28;20257;-73
2021/04/30 16:21:40;;;;;;;7.10;6.40;;;18.40;22.30;;;;;;10402007;28;20245;-73
2021/04/30 16:26:42;;;;;;;7.53;6.80;;;18.20;22.30;;;;;;10403477;28;20710;-73
2021/04/30 16:31:44;;;;;;;6.87;6.20;;;18.00;22.20;;;;;;10404219;28;20232;-75
2021/04/30 16:36:48;;;;;;;6.23;5.70;;;17.70;22.40;;;;;;10406191;28;20285;-75
2021/04/30 16:41:50;;;;;;;6.20;5.70;;;17.50;22.80;;;;;;10416581;28;20229;-75
2021/04/30 16:46:53;;;;;;;6.53;5.93;;;17.30;23.50;;;;;;10409658;28;20234;-75
2021/04/30 16:51:56;;;;;;;6.10;5.50;;;17.10;23.40;;;;;;10408908;28;20671;-75
2021/04/30 16:56:58;;;;;;;6.70;6.10;;;17.00;24.10;;;;;;10417079;28;20312;-75
2021/04/30 17:02:01;;;;;;;6.10;5.60;;;16.80;24.50;;;;;;10407594;28;20777;-75
2021/04/30 17:07:05;;;;;;;6.20;5.70;;;16.70;24.70;;;;;;10410020;28;20234;-75
2021/04/30 17:12:08;;;;;;;6.63;6.03;;;16.60;25.20;;;;;;10421706;28;20255;-75
2021/04/30 17:17:10;;;;;;;6.27;5.77;;;16.50;25.30;;;;;;10408186;28;20261;-75
2021/04/30 17:22:15;;;;;;;6.60;5.83;;;16.40;25.40;;;;;;10419205;28;20229;-76
2021/04/30 17:27:19;;;;;;;6.10;5.60;;;16.20;25.60;;;;;;10415241;28;20295;-76
2021/04/30 17:32:22;;;;;;;6.47;5.97;;;16.10;25.60;;;;;;10420992;28;20237;-76
2021/04/30 17:37:25;;;;;;;6.53;5.93;;;16.00;25.60;;;;;;10415050;28;20690;-76
2021/04/30 17:42:27;;;;;;;6.63;6.13;;;15.90;26.10;;;;;;10406961;28;20252;-76
2021/04/30 17:47:29;;;;;;;6.77;6.17;;;15.80;26.00;;;;;;10413559;28;20345;-76
2021/04/30 17:52:32;;;;;;;7.47;6.73;;;15.70;26.30;;;;;;10401050;28;20236;-76
2021/04/30 17:57:35;;;;;;;7.00;6.30;;;15.60;26.90;;;;;;10412701;28;20324;-76
2021/04/30 18:02:38;;;;;;;7.87;7.17;;;15.50;26.70;;;;;;10412448;28;20288;-76
2021/04/30 18:07:41;;;;;;;7.63;7.03;;;15.40;27.10;;;;;;10406904;28;20234;-76
2021/04/30 18:12:43;;;;;;;7.40;6.70;;;15.30;27.20;;;;;;10402079;28;20674;-76
2021/04/30 18:17:45;;;;;;;7.80;7.10;;;15.20;27.00;;;;;;10399880;28;20713;-76
2021/04/30 18:22:50;;;;;;;8.70;7.90;;;15.10;27.20;;;;;;10407445;28;20578;-76
2021/04/30 18:27:55;;;;;;;8.33;7.53;;;15.00;27.80;;;;;;10408313;28;20733;-77
2021/04/30 18:32:58;;;;;;;8.23;7.53;;;15.00;27.50;;;;;;10412827;28;20869;-76
2021/04/30 18:38:02;;;;;;;9.67;8.83;;;14.90;27.70;;;;;;10422457;28;20641;-76
2021/04/30 18:43:06;;;;;;;8.07;7.43;;;14.90;28.10;;;;;;10412970;28;20309;-76
2021/04/30 18:48:10;;;;;;;9.13;8.23;;;14.70;27.70;;;;;;10405796;28;20315;-76
2021/04/30 18:53:13;;;;;;;8.57;7.87;;;14.60;28.60;;;;;;10413303;28;20457;-76
2021/04/30 18:58:17;;;;;;;9.37;8.57;;;14.50;28.20;;;;;;10414330;28;20313;-76
2021/04/30 19:03:20;;;;;;;9.87;9.07;;;14.50;28.30;;;;;;10423281;28;20315;-76
2021/04/30 19:08:23;;;;;;;11.03;10.13;;;14.30;28.50;;;;;;10411544;28;20244;-76
2021/04/30 19:13:25;;;;;;;10.20;9.40;;;14.20;29.00;;;;;;10419787;28;20317;-76
2021/04/30 19:18:28;;;;;;;10.27;9.37;;;14.00;28.90;;;;;;10415266;28;20648;-76
2021/04/30 19:23:32;;;;;;;10.50;9.70;;;13.90;29.00;;;;;;10419096;28;20225;-76
2021/04/30 19:28:34;;;;;;;10.90;9.90;;;13.70;29.40;;;;;;10416503;28;20312;-76
2021/04/30 19:33:37;;;;;;;11.23;10.23;;;13.50;29.20;;;;;;10412835;28;20257;-76
2021/04/30 19:38:40;;;;;;;11.40;10.40;;;13.50;29.60;;;;;;10438689;28;20225;-76
2021/04/30 19:43:42;;;;;;;11.10;10.20;;;13.40;30.30;;;;;;10417462;28;20264;-76
2021/04/30 19:48:45;;;;;;;12.53;11.43;;;13.30;30.40;;;;;;10417885;28;20252;-76
2021/04/30 19:53:48;;;;;;;11.63;10.63;;;13.10;30.40;;;;;;10415180;28;20308;-76
2021/04/30 19:58:50;;;;;;;10.93;10.03;;;13.10;30.40;;;;;;10410657;28;20349;-76
2021/04/30 20:03:53;;;;;;;11.77;10.73;;;13.10;30.40;;;;;;10415693;28;20256;-76
2021/04/30 20:08:56;;;;;;;11.77;10.67;;;13.10;30.40;;;;;;10404163;28;20221;-76
2021/04/30 20:13:59;;;;;;;11.70;10.70;;;13.10;30.40;;;;;;10417663;28;20325;-76
2021/04/30 20:19:01;;;;;;;10.37;9.53;;;13.20;30.50;;;;;;10416260;28;20417;-77
2021/04/30 20:24:06;;;;;;;10.77;9.87;;;13.20;30.50;;;;;;10423995;28;20712;-76
2021/04/30 20:29:08;;;;;;;11.87;10.70;;;13.30;31.00;;;;;;10416217;28;20265;-76
2021/04/30 20:34:10;;;;;;;11.20;10.20;;;13.30;30.60;;;;;;10427881;28;20320;-76
2021/04/30 20:39:15;;;;;;;12.50;11.27;;;13.20;30.50;;;;;;10407617;28;20240;-76
2021/04/30 20:44:17;;;;;;;11.50;10.60;;;13.20;31.10;;;;;;10419760;28;20272;-75
2021/04/30 20:49:19;;;;;;;11.70;10.70;;;13.10;30.40;;;;;;10414507;28;20249;-76
2021/04/30 20:54:22;;;;;;;11.47;10.47;;;13.00;30.50;;;;;;10415566;28;20324;-77
2021/04/30 20:59:25;;;;;;;11.87;10.77;;;13.10;31.10;;;;;;10409095;28;20319;-77
2021/04/30 21:04:27;;;;;;;11.20;10.20;;;13.00;30.60;;;;;;10408792;28;20595;-77
2021/04/30 21:09:30;;;;;;;11.73;10.73;;;13.00;31.00;;;;;;10424278;28;20225;-77
2021/04/30 21:14:33;;;;;;;11.50;10.60;;;12.90;31.50;;;;;;10412868;28;20659;-77
2021/04/30 21:19:37;;;;;;;10.63;9.73;;;12.80;31.30;;;;;;10408321;28;20320;-77
2021/04/30 21:24:43;;;;;;;11.47;10.37;;;12.80;31.70;;;;;;10418711;28;20230;-77
2021/04/30 21:29:46;;;;;;;12.67;11.53;;;12.70;32.40;;;;;;10411687;28;20785;-77
2021/04/30 21:34:49;;;;;;;12.17;11.17;;;12.60;31.80;;;;;;10423841;28;20273;-76
2021/04/30 21:39:52;;;;;;;11.40;10.43;;;12.60;31.70;;;;;;10416331;28;20661;-77
2021/04/30 21:44:54;;;;;;;11.33;10.37;;;12.50;32.40;;;;;;10418359;28;20357;-76
2021/04/30 21:49:56;;;;;;;12.00;10.90;;;12.40;32.20;;;;;;10410724;28;20654;-76
2021/04/30 21:54:59;;;;;;;12.40;11.37;;;12.40;32.50;;;;;;10407808;28;20228;-76
2021/04/30 22:00:04;;;;;;;12.70;11.50;;;12.40;33.10;;;;;;10410862;28;20221;-76
2021/04/30 22:05:07;;;;;;;12.67;11.57;;;12.30;32.80;;;;;;10412058;28;20280;-76
2021/04/30 22:10:10;;;;;;;13.07;11.97;;;12.40;33.00;;;;;;10408255;28;20583;-76
2021/04/30 22:15:20;;;;;;;12.93;11.80;;;12.40;33.30;;;;;;10410631;28;20301;-76
2021/04/30 22:20:24;;;;;;;13.27;12.07;;;12.40;34.20;;;;;;10406061;28;20777;-77
2021/04/30 22:25:27;;;;;;;13.03;11.97;;;12.50;33.30;;;;;;10406319;28;20268;-76
2021/04/30 22:30:29;;;;;;;13.83;12.63;;;12.50;33.30;;;;;;10414236;28;20268;-77
2021/04/30 22:35:32;;;;;;;14.00;12.70;;;12.50;33.00;;;;;;10416445;28;20226;-76
2021/04/30 22:40:35;;;;;;;13.50;12.20;;;12.50;33.00;;;;;;10418970;28;20702;-76
2021/04/30 22:45:37;;;;;;;15.10;13.70;;;12.50;33.40;;;;;;10412429;28;20303;-76
2021/04/30 22:50:39;;;;;;;14.83;13.53;;;12.50;33.10;;;;;;10410878;28;20233;-76
2021/04/30 22:55:42;;;;;;;14.57;13.23;;;12.50;33.10;;;;;;10411602;28;20320;-76
2021/04/30 23:00:45;;;;;;;15.23;13.83;;;12.50;33.50;;;;;;10407517;28;20226;-76
2021/04/30 23:05:47;;;;;;;15.97;14.57;;;12.50;33.10;;;;;;10411560;28;20235;-76
2021/04/30 23:10:50;;;;;;;16.67;14.97;;;12.50;33.00;;;;;;10431091;28;20317;-76
2021/04/30 23:15:52;;;;;;;15.70;14.30;;;12.40;33.60;;;;;;10413652;28;20312;-76
2021/04/30 23:20:55;;;;;;;15.10;13.80;;;12.40;33.20;;;;;;10404716;28;20254;-77
2021/04/30 23:25:58;;;;;;;15.77;14.43;;;12.40;33.40;;;;;;10408058;28;20256;-77
2021/04/30 23:31:00;;;;;;;16.10;14.60;;;12.40;33.90;;;;;;10406344;28;20314;-77
2021/04/30 23:36:02;;;;;;;13.00;11.90;;;12.40;33.60;;;;;;10413076;28;20249;-77
2021/04/30 23:41:05;;;;;;;14.13;12.80;;;12.50;33.60;;;;;;10410749;28;20287;-77
2021/04/30 23:46:07;;;;;;;15.03;13.73;;;12.50;34.00;;;;;;10407059;28;20742;-77
2021/04/30 23:51:11;;;;;;;16.03;14.63;;;12.50;33.80;;;;;;10419291;28;20310;-77
2021/04/30 23:56:14;;;;;;;16.77;15.37;;;12.60;33.80;;;;;;10413708;28;20324;-77
